Time;durP1;ratioP1;P1;durP2;ratioP2;P2;SDS_P1;SDS_P2;PMS_P1;PMS_P2;Temp;Humidity;BMP_temperature;BMP_pressure;BME280_temperature;BME280_humidity;BME280_pressure;Samples;Min_cycle;Max_cycle;Signal;HPM_P1;HPM_P2
2022/01/11 00:01:22;;;;;;;49.03;29.38;;;3.90;99.90;;;;;;5095778;28;20081;-88
2022/01/11 00:03:54;;;;;;;73.40;31.42;;;3.90;99.90;;;;;;5113654;28;20114;-88
2022/01/11 00:09:18;;;;;;;45.78;27.58;;;3.90;99.90;;;;;;5113840;28;20108;-89
2022/01/11 00:11:50;;;;;;;66.32;27.73;;;3.80;99.90;;;;;;5112130;28;20027;-88
2022/01/11 00:14:16;;;;;;;46.30;27.52;;;3.80;99.90;;;;;;5113051;28;20044;-88
2022/01/11 00:16:50;;;;;;;46.17;27.58;;;3.80;99.90;;;;;;5113827;28;20096;-88
2022/01/11 00:19:16;;;;;;;51.72;30.15;;;3.80;99.90;;;;;;5113650;28;20024;-88
2022/01/11 00:21:47;;;;;;;54.20;30.10;;;3.80;99.90;;;;;;5095419;28;20035;-88
2022/01/11 00:24:33;;;;;;;87.85;27.23;;;3.70;99.90;;;;;;5113466;28;20102;-89
2022/01/11 00:27:04;;;;;;;47.88;26.73;;;3.70;99.90;;;;;;5105545;28;20367;-88
2022/01/11 00:29:31;;;;;;;65.65;28.90;;;3.70;99.90;;;;;;5113322;28;20028;-88
2022/01/11 00:32:17;;;;;;;52.20;26.55;;;3.70;99.90;;;;;;5094947;28;20024;-88
2022/01/11 00:34:56;;;;;;;55.63;29.98;;;3.70;99.90;;;;;;5113435;28;20379;-88
2022/01/11 00:37:22;;;;;;;53.90;29.33;;;3.70;99.90;;;;;;5113546;28;20536;-88
2022/01/11 00:39:52;;;;;;;92.47;28.95;;;3.70;99.90;;;;;;5112752;28;20491;-87
2022/01/11 00:42:41;;;;;;;69.28;29.15;;;3.70;99.90;;;;;;5113143;28;20027;-88
2022/01/11 00:45:12;;;;;;;59.08;29.23;;;3.70;99.90;;;;;;5113388;28;20024;-89
2022/01/11 00:47:38;;;;;;;61.53;30.08;;;3.70;99.90;;;;;;5113207;28;20471;-88
2022/01/11 00:50:19;;;;;;;57.10;27.77;;;3.60;99.90;;;;;;5094959;28;20034;-88
2022/01/11 00:52:45;;;;;;;63.90;30.40;;;3.60;99.90;;;;;;5113243;28;20026;-88
2022/01/11 00:55:11;;;;;;;58.65;29.33;;;3.60;99.90;;;;;;5112878;28;20028;-88
2022/01/11 00:57:41;;;;;;;59.58;28.63;;;3.60;99.90;;;;;;5095147;28;20035;-88
2022/01/11 01:00:11;;;;;;;67.45;31.83;;;3.60;99.90;;;;;;5094675;28;20027;-88
2022/01/11 01:02:37;;;;;;;71.35;32.00;;;3.60;99.90;;;;;;5113016;28;20023;-88
2022/01/11 01:05:17;;;;;;;69.22;32.20;;;3.60;99.90;;;;;;5112817;28;20020;-88
2022/01/11 01:07:43;;;;;;;66.68;28.60;;;3.60;99.90;;;;;;5094849;28;20035;-88
2022/01/11 01:10:19;;;;;;;62.33;28.88;;;3.60;99.90;;;;;;5112768;28;20031;-88
2022/01/11 01:12:48;;;;;;;61.75;28.20;;;3.60;99.90;;;;;;5112476;28;20024;-89
2022/01/11 01:15:13;;;;;;;55.40;25.80;;;3.60;99.90;;;;;;5112570;28;20406;-88
2022/01/11 01:17:42;;;;;;;58.53;27.75;;;3.60;99.90;;;;;;5112541;28;20034;-88
2022/01/11 01:20:09;;;;;;;74.68;30.23;;;3.60;99.90;;;;;;5094901;28;20035;-88
2022/01/11 01:22:34;;;;;;;58.70;29.38;;;3.60;99.90;;;;;;5112678;28;20024;-89
2022/01/11 01:25:08;;;;;;;56.75;26.92;;;3.60;99.90;;;;;;5098111;28;20024;-88
2022/01/11 01:27:34;;;;;;;53.15;24.20;;;3.60;99.90;;;;;;5093881;28;20081;-88
2022/01/11 01:30:03;;;;;;;65.25;28.92;;;3.60;99.90;;;;;;5094706;28;20019;-88
2022/01/11 01:32:53;;;;;;;62.63;29.40;;;3.60;99.90;;;;;;5112476;28;20016;-89
2022/01/11 01:35:21;;;;;;;64.25;27.00;;;3.60;99.90;;;;;;5112946;28;20031;-88
2022/01/11 01:37:47;;;;;;;52.58;23.75;;;3.50;99.90;;;;;;5112594;28;20026;-89
2022/01/11 01:40:38;;;;;;;65.90;26.80;;;3.50;99.90;;;;;;5094233;28;20015;-88
2022/01/11 01:43:05;;;;;;;64.93;29.38;;;3.60;99.90;;;;;;5094632;28;20031;-88
2022/01/11 01:45:31;;;;;;;52.00;25.40;;;3.60;99.90;;;;;;5112984;28;20023;-88
2022/01/11 01:48:06;;;;;;;53.33;24.70;;;3.60;99.90;;;;;;5094364;28;20024;-89
2022/01/11 01:50:32;;;;;;;64.25;28.48;;;3.60;99.90;;;;;;5113099;28;20015;-88
2022/01/11 01:53:00;;;;;;;54.17;25.08;;;3.60;99.90;;;;;;5096860;28;20031;-88
2022/01/11 01:55:34;;;;;;;61.80;27.42;;;3.60;99.90;;;;;;5116288;28;20106;-88
2022/01/11 01:58:00;;;;;;;53.03;24.80;;;3.60;99.90;;;;;;5098527;28;20049;-88
2022/01/11 02:00:29;;;;;;;53.70;25.10;;;3.60;99.90;;;;;;5098257;28;20020;-88
2022/01/11 02:03:15;;;;;;;60.67;27.58;;;3.60;99.90;;;;;;5116207;28;20556;-88
2022/01/11 02:05:44;;;;;;;;;;;3.60;99.90;;;;;;5116758;28;20047;-89
2022/01/11 02:08:12;;;;;;;60.17;27.50;;;3.60;99.90;;;;;;5097856;28;20362;-88
2022/01/11 02:10:49;;;;;;;60.05;26.90;;;3.60;99.90;;;;;;5115993;28;20019;-89
2022/01/11 02:13:15;;;;;;;55.13;26.60;;;3.60;99.90;;;;;;5116037;28;20057;-89
2022/01/11 02:15:41;;;;;;;53.00;24.65;;;3.70;99.90;;;;;;5097692;28;20038;-89
2022/01/11 02:18:13;;;;;;;57.03;25.77;;;3.60;99.90;;;;;;5116120;28;20024;-88
2022/01/11 02:20:44;;;;;;;56.13;25.73;;;3.60;99.90;;;;;;5097805;28;20135;-88
2022/01/11 02:23:10;;;;;;;65.25;27.73;;;3.60;99.90;;;;;;5115729;28;20069;-88
2022/01/11 02:25:55;;;;;;;67.47;30.85;;;3.60;99.90;;;;;;5115523;28;20474;-88
2022/01/11 02:28:24;;;;;;;57.47;25.30;;;3.60;99.90;;;;;;5115808;28;20102;-88
2022/01/11 02:30:50;;;;;;;58.55;26.38;;;3.60;99.90;;;;;;5097928;28;20020;-89
2022/01/11 02:33:42;;;;;;;67.25;27.63;;;3.60;99.90;;;;;;5115776;28;20432;-88
2022/01/11 02:36:13;;;;;;;63.15;28.25;;;3.60;99.90;;;;;;5115681;28;20081;-88
2022/01/11 02:38:38;;;;;;;65.07;29.98;;;3.60;99.90;;;;;;5097260;28;20065;-88
2022/01/11 02:41:12;;;;;;;63.92;28.88;;;3.60;99.90;;;;;;5115121;28;20384;-88
2022/01/11 02:43:42;;;;;;;72.35;31.90;;;3.60;99.90;;;;;;5097171;28;20479;-88
2022/01/11 02:46:10;;;;;;;61.97;28.77;;;3.60;99.90;;;;;;5075060;28;20044;-88
2022/01/11 02:48:37;;;;;;;69.70;31.52;;;3.50;99.90;;;;;;5092991;28;20019;-88
2022/01/11 02:51:04;;;;;;;61.38;28.42;;;3.60;99.90;;;;;;5115282;28;20088;-88
2022/01/11 02:53:31;;;;;;;63.42;28.88;;;3.60;99.90;;;;;;5096641;28;20024;-88
2022/01/11 02:55:57;;;;;;;56.50;25.73;;;3.60;99.90;;;;;;5096762;28;20080;-88
2022/01/11 02:58:22;;;;;;;56.47;25.73;;;3.60;99.90;;;;;;5115212;28;20023;-89
2022/01/11 03:00:50;;;;;;;52.08;24.25;;;3.60;99.90;;;;;;5096821;28;20484;-89
2022/01/11 03:03:23;;;;;;;52.83;24.45;;;3.60;99.90;;;;;;5096485;28;20124;-89
2022/01/11 03:05:50;;;;;;;65.55;26.73;;;3.50;99.90;;;;;;5115212;28;20464;-88
2022/01/11 03:08:21;;;;;;;56.03;25.48;;;3.60;99.90;;;;;;5115215;28;20028;-88
2022/01/11 03:10:49;;;;;;;48.45;24.08;;;3.60;99.90;;;;;;5114747;28;20348;-89
2022/01/11 03:13:16;;;;;;;53.97;24.10;;;3.70;99.90;;;;;;5114954;28;20020;-89
2022/01/11 03:15:48;;;;;;;57.10;24.83;;;3.60;99.90;;;;;;5114821;28;20057;-89
2022/01/11 03:18:15;;;;;;;52.03;24.35;;;3.60;99.90;;;;;;5114889;28;20484;-89
2022/01/11 03:20:53;;;;;;;51.78;24.40;;;3.60;99.90;;;;;;5114476;28;20417;-88
2022/01/11 03:23:19;;;;;;;49.53;23.67;;;3.60;99.90;;;;;;5114573;28;20418;-89
2022/01/11 03:25:52;;;;;;;55.55;24.00;;;3.60;99.90;;;;;;5114502;28;20467;-88
2022/01/11 03:28:22;;;;;;;49.15;20.40;;;3.70;99.90;;;;;;5096327;28;20521;-89
2022/01/11 03:30:49;;;;;;;44.58;20.73;;;3.60;99.90;;;;;;5114676;28;20019;-88
2022/01/11 03:33:23;;;;;;;44.05;20.85;;;3.60;99.90;;;;;;5114661;28;20417;-88
2022/01/11 03:35:50;;;;;;;44.60;20.88;;;3.70;99.90;;;;;;5114772;28;20365;-88
2022/01/11 03:38:18;;;;;;;38.42;18.92;;;3.60;99.90;;;;;;5114315;28;20469;-88
2022/01/11 03:40:44;;;;;;;41.05;19.58;;;3.60;99.90;;;;;;5095736;28;20442;-88
2022/01/11 03:43:10;;;;;;;40.28;18.92;;;3.60;99.90;;;;;;5114291;28;20031;-88
2022/01/11 03:45:37;;;;;;;44.20;22.60;;;3.70;99.90;;;;;;5096213;28;20016;-88
2022/01/11 03:48:06;;;;;;;44.45;21.35;;;3.70;99.90;;;;;;5114106;28;20430;-88
2022/01/11 03:50:32;;;;;;;46.30;21.85;;;3.70;99.90;;;;;;5114334;28;20395;-89
2022/01/11 03:53:15;;;;;;;50.63;22.40;;;3.70;99.90;;;;;;5114360;28;20115;-89
2022/01/11 03:55:58;;;;;;;42.50;22.02;;;3.70;99.90;;;;;;5113862;28;20068;-88
2022/01/11 03:58:26;;;;;;;44.67;19.60;;;3.70;99.90;;;;;;5114390;28;20055;-89
2022/01/11 04:00:53;;;;;;;64.18;25.10;;;3.70;99.90;;;;;;5114118;28;20053;-89
2022/01/11 04:03:19;;;;;;;44.28;21.83;;;3.70;99.90;;;;;;5095711;28;20491;-88
2022/01/11 04:05:46;;;;;;;46.78;22.17;;;3.70;99.90;;;;;;5113865;28;20099;-89
2022/01/11 04:08:45;;;;;;;43.45;20.55;;;3.70;99.90;;;;;;5113740;28;20475;-89
2022/01/11 04:11:11;;;;;;;41.13;20.40;;;3.70;99.90;;;;;;5113414;28;20054;-88
2022/01/11 04:13:40;;;;;;;42.63;19.98;;;3.70;99.90;;;;;;5113222;28;20433;-88
2022/01/11 04:16:06;;;;;;;39.88;17.92;;;3.70;99.90;;;;;;5111687;28;20034;-88
2022/01/11 04:18:34;;;;;;;39.53;19.17;;;3.80;99.90;;;;;;5113533;28;20024;-88
2022/01/11 04:21:00;;;;;;;50.67;24.33;;;3.70;99.90;;;;;;5095295;28;20538;-88
2022/01/11 04:23:27;;;;;;;44.33;20.75;;;3.70;99.90;;;;;;5095347;28;20114;-88
2022/01/11 04:25:53;;;;;;;50.58;22.50;;;3.70;99.90;;;;;;5113331;28;20161;-88
2022/01/11 04:28:18;;;;;;;46.47;21.67;;;3.70;99.90;;;;;;5113411;28;20057;-88
2022/01/11 04:30:44;;;;;;;42.40;19.90;;;3.70;99.90;;;;;;5110904;28;20031;-88
2022/01/11 04:33:10;;;;;;;43.92;20.17;;;3.70;99.90;;;;;;5113748;28;20032;-88
2022/01/11 04:35:44;;;;;;;39.53;18.70;;;3.70;99.90;;;;;;5113065;28;20070;-88
2022/01/11 04:38:10;;;;;;;42.08;19.58;;;3.70;99.90;;;;;;5102321;28;20020;-88
2022/01/11 04:40:56;;;;;;;46.80;21.40;;;3.70;99.90;;;;;;5100078;28;20035;-87
2022/01/11 04:43:22;;;;;;;39.72;19.63;;;3.70;99.90;;;;;;5113222;28;20023;-87
2022/01/11 04:45:48;;;;;;;39.47;19.50;;;3.70;99.90;;;;;;5113432;28;20028;-88
2022/01/11 04:48:15;;;;;;;40.50;19.83;;;3.70;99.90;;;;;;5113460;28;20495;-88
2022/01/11 04:50:45;;;;;;;38.97;19.98;;;3.70;99.90;;;;;;5113453;28;20480;-87
2022/01/11 04:53:18;;;;;;;35.50;18.45;;;3.70;99.90;;;;;;5113149;28;20024;-88
2022/01/11 04:55:44;;;;;;;40.53;19.73;;;3.70;99.90;;;;;;5112900;28;20035;-88
2022/01/11 04:58:10;;;;;;;32.75;17.75;;;3.70;99.90;;;;;;5095155;28;20031;-88
2022/01/11 05:00:36;;;;;;;37.97;19.88;;;3.70;99.90;;;;;;5113202;28;20051;-88
2022/01/11 05:03:02;;;;;;;50.42;23.58;;;3.70;99.90;;;;;;5113017;28;20034;-88
2022/01/11 05:05:29;;;;;;;55.70;26.35;;;3.70;99.90;;;;;;5112777;28;20474;-88
2022/01/11 05:07:57;;;;;;;53.78;24.45;;;3.70;99.90;;;;;;5112909;28;20022;-89
2022/01/11 05:10:23;;;;;;;51.88;25.13;;;3.70;99.90;;;;;;5112421;28;20035;-88
2022/01/11 05:12:50;;;;;;;50.75;24.58;;;3.70;99.90;;;;;;5111242;28;20521;-88
2022/01/11 05:15:23;;;;;;;46.92;23.90;;;3.70;99.90;;;;;;5112986;28;20438;-88
2022/01/11 05:17:48;;;;;;;43.95;21.52;;;3.70;99.90;;;;;;5112183;28;20047;-88
2022/01/11 05:20:17;;;;;;;40.67;20.60;;;3.70;99.90;;;;;;5092713;28;20024;-89
2022/01/11 05:22:45;;;;;;;44.17;20.13;;;3.70;99.90;;;;;;5092391;28;20020;-88
2022/01/11 05:25:15;;;;;;;42.92;22.60;;;3.70;99.90;;;;;;5092380;28;20069;-88
2022/01/11 05:27:44;;;;;;;40.90;19.55;;;3.70;99.90;;;;;;5091981;28;20052;-88
2022/01/11 05:30:10;;;;;;;42.08;21.10;;;3.70;99.90;;;;;;5078502;28;20499;-89
2022/01/11 05:32:48;;;;;;;42.30;21.08;;;3.70;99.90;;;;;;5095349;28;20024;-89
2022/01/11 05:35:23;;;;;;;44.75;21.25;;;3.70;99.90;;;;;;5096711;28;20039;-88
2022/01/11 05:37:49;;;;;;;42.38;20.60;;;3.70;99.90;;;;;;5095415;28;20030;-89
2022/01/11 05:40:19;;;;;;;45.00;23.00;;;3.80;99.90;;;;;;5096396;28;20024;-89
2022/01/11 05:42:48;;;;;;;43.67;22.30;;;3.80;99.90;;;;;;5097841;28;20063;-88
2022/01/11 05:45:14;;;;;;;46.65;23.17;;;3.80;99.90;;;;;;5116705;28;20030;-88
2022/01/11 05:47:40;;;;;;;44.13;20.75;;;3.80;99.90;;;;;;5098754;28;20027;-87
2022/01/11 05:50:10;;;;;;;42.08;21.02;;;3.80;99.90;;;;;;5111477;28;20028;-88
2022/01/11 05:52:38;;;;;;;43.15;22.70;;;3.80;99.90;;;;;;5107109;27;20388;-89
2022/01/11 05:55:07;;;;;;;42.03;23.33;;;3.80;99.90;;;;;;5094670;28;20024;-88
2022/01/11 05:57:33;;;;;;;47.60;22.23;;;3.80;99.90;;;;;;5096208;28;20028;-89
2022/01/11 05:59:59;;;;;;;44.20;22.85;;;3.70;99.90;;;;;;5096631;28;20031;-89
2022/01/11 06:02:33;;;;;;;42.55;22.88;;;3.70;99.90;;;;;;5095863;28;20387;-90
2022/01/11 06:04:59;;;;;;;42.67;22.15;;;3.70;99.90;;;;;;5077904;28;20024;-89
2022/01/11 06:07:26;;;;;;;45.50;23.23;;;3.70;99.90;;;;;;5096001;28;20090;-89
2022/01/11 06:09:52;;;;;;;48.30;23.67;;;3.70;99.90;;;;;;5092186;28;20024;-89
2022/01/11 06:12:23;;;;;;;43.15;23.55;;;3.70;99.90;;;;;;5097383;28;20103;-88
2022/01/11 06:14:59;;;;;;;52.63;24.35;;;3.70;99.90;;;;;;5075334;28;20099;-89
2022/01/11 06:17:24;;;;;;;;;;;3.70;99.90;;;;;;5083353;28;20046;-89
2022/01/11 06:19:50;;;;;;;49.13;24.23;;;3.70;99.90;;;;;;5098010;28;19903;-88
2022/01/11 06:22:24;;;;;;;69.35;31.92;;;3.70;99.90;;;;;;5097238;28;20055;-89
2022/01/11 06:24:49;;;;;;;56.90;28.75;;;3.70;99.90;;;;;;5115723;28;20020;-88
2022/01/11 06:27:15;;;;;;;66.97;30.40;;;3.70;99.90;;;;;;5111650;28;20019;-88
2022/01/11 06:29:41;;;;;;;69.28;31.88;;;3.60;99.90;;;;;;5096820;28;20096;-88
2022/01/11 06:32:07;;;;;;;71.18;30.40;;;3.60;99.90;;;;;;5091086;28;20028;-88
2022/01/11 06:34:33;;;;;;;63.95;29.65;;;3.60;99.90;;;;;;5093738;28;20055;-88
2022/01/11 06:36:59;;;;;;;66.45;29.77;;;3.60;99.90;;;;;;5113871;28;20028;-88
2022/01/11 06:39:25;;;;;;;64.10;28.90;;;3.60;99.90;;;;;;5113633;28;20103;-88
2022/01/11 06:41:51;;;;;;;65.63;28.20;;;3.60;99.90;;;;;;5114585;28;20024;-88
2022/01/11 06:44:17;;;;;;;66.85;29.58;;;3.60;99.90;;;;;;5096143;28;20073;-88
2022/01/11 06:46:42;;;;;;;58.65;29.05;;;3.60;99.90;;;;;;5096751;28;20027;-88
2022/01/11 06:49:08;;;;;;;67.35;28.75;;;3.60;99.90;;;;;;5096411;28;20108;-88
2022/01/11 06:51:35;;;;;;;67.88;27.65;;;3.60;99.90;;;;;;5096714;28;20023;-88
2022/01/11 06:54:01;;;;;;;69.10;29.83;;;3.60;99.90;;;;;;5115198;28;20047;-88
2022/01/11 06:56:45;;;;;;;66.78;26.98;;;3.60;99.90;;;;;;5096486;28;20023;-88
2022/01/11 06:59:10;;;;;;;69.32;28.30;;;3.60;99.90;;;;;;5096983;28;20144;-88
2022/01/11 07:01:36;;;;;;;63.17;25.38;;;3.60;99.90;;;;;;5114536;28;20122;-88
2022/01/11 07:04:02;;;;;;;74.03;28.08;;;3.60;99.90;;;;;;5103017;28;20535;-89
2022/01/11 07:06:27;;;;;;;77.22;33.22;;;3.60;99.90;;;;;;5088988;28;20054;-88
2022/01/11 07:08:53;;;;;;;66.47;28.63;;;3.60;99.90;;;;;;5103518;28;20020;-88
2022/01/11 07:11:18;;;;;;;89.78;33.78;;;3.50;99.90;;;;;;5113850;28;20027;-88
2022/01/11 07:13:44;;;;;;;78.53;31.27;;;3.50;99.90;;;;;;5114220;28;20073;-87
2022/01/11 07:16:10;;;;;;;71.22;29.92;;;3.50;99.90;;;;;;5114225;28;20504;-88
2022/01/11 07:18:35;;;;;;;61.35;27.42;;;3.50;99.90;;;;;;5096179;28;20031;-88
2022/01/11 07:21:01;;;;;;;68.57;26.90;;;3.50;99.90;;;;;;5113879;28;20031;-88
2022/01/11 07:23:26;;;;;;;73.18;27.63;;;3.50;99.90;;;;;;5094086;28;20031;-88
2022/01/11 07:25:52;;;;;;;64.43;27.20;;;3.50;99.90;;;;;;5113032;28;20476;-88
2022/01/11 07:28:18;;;;;;;76.15;28.67;;;3.50;99.90;;;;;;5113817;28;20030;-88
2022/01/11 07:30:44;;;;;;;61.58;25.58;;;3.50;99.90;;;;;;5114324;28;20039;-88
2022/01/11 07:33:09;;;;;;;76.18;29.55;;;3.50;99.90;;;;;;5113941;28;20367;-88
2022/01/11 07:35:35;;;;;;;90.65;31.98;;;3.50;99.90;;;;;;5112353;28;20111;-88
2022/01/11 07:38:01;;;;;;;90.15;33.00;;;3.50;99.90;;;;;;5102745;28;20035;-88
2022/01/11 07:40:27;;;;;;;95.55;33.60;;;3.50;99.90;;;;;;5111888;28;20379;-88
2022/01/11 07:42:53;;;;;;;90.60;32.92;;;3.50;99.90;;;;;;5094367;28;20037;-88
2022/01/11 07:45:19;;;;;;;81.97;30.60;;;3.50;99.90;;;;;;5094862;28;20118;-89
2022/01/11 07:47:45;;;;;;;77.25;29.92;;;3.50;99.90;;;;;;5112616;28;20058;-89
2022/01/11 07:50:11;;;;;;;73.60;30.13;;;3.50;99.90;;;;;;5113024;28;20027;-89
2022/01/11 07:52:39;;;;;;;76.43;29.90;;;3.50;99.90;;;;;;5092388;28;20027;-89
2022/01/11 07:55:05;;;;;;;71.22;28.80;;;3.50;99.90;;;;;;5092396;28;20024;-90
2022/01/11 07:57:31;;;;;;;62.65;27.30;;;3.50;99.90;;;;;;5092389;28;20027;-89
2022/01/11 07:59:56;;;;;;;91.65;32.38;;;3.50;99.90;;;;;;5093473;28;20062;-89
2022/01/11 08:02:26;;;;;;;100.28;35.63;;;3.50;99.90;;;;;;5078226;28;20448;-89
2022/01/11 08:04:53;;;;;;;94.85;32.53;;;3.50;99.90;;;;;;5085580;28;20137;-89
2022/01/11 08:07:19;;;;;;;91.93;36.20;;;3.50;99.90;;;;;;5113791;28;20511;-88
2022/01/11 08:09:56;;;;;;;89.97;32.25;;;3.50;99.90;;;;;;5096017;28;20364;-89
2022/01/11 08:12:21;;;;;;;105.32;36.88;;;3.50;99.90;;;;;;5084687;28;20027;-89
2022/01/11 08:14:48;;;;;;;90.50;33.60;;;3.50;99.90;;;;;;5093839;28;20047;-89
2022/01/11 08:17:15;;;;;;;90.40;33.38;;;3.50;99.90;;;;;;5095312;28;20203;-88
2022/01/11 08:19:40;;;;;;;74.22;29.13;;;3.50;99.90;;;;;;5112570;27;20192;-89
2022/01/11 08:22:06;;;;;;;90.72;33.40;;;3.50;99.90;;;;;;5108515;28;20106;-89
2022/01/11 08:24:49;;;;;;;78.55;30.73;;;3.60;99.90;;;;;;5113342;28;20036;-88
2022/01/11 08:27:15;;;;;;;90.00;33.17;;;3.50;99.90;;;;;;5072924;28;20024;-89
2022/01/11 08:29:42;;;;;;;87.55;33.33;;;3.50;99.90;;;;;;5072601;28;20491;-89
2022/01/11 08:32:08;;;;;;;81.53;31.85;;;3.50;99.90;;;;;;5111682;28;20038;-89
2022/01/11 08:34:33;;;;;;;79.97;29.00;;;3.50;99.90;;;;;;5112646;28;20059;-89
2022/01/11 08:37:00;;;;;;;94.25;32.63;;;3.50;99.90;;;;;;5112569;28;20112;-89
2022/01/11 08:39:26;;;;;;;85.90;30.88;;;3.50;99.90;;;;;;5112155;28;20031;-89
2022/01/11 08:41:52;;;;;;;85.78;32.38;;;3.50;99.90;;;;;;5093764;28;20027;-88
2022/01/11 08:44:20;;;;;;;85.20;32.70;;;3.50;99.90;;;;;;5112064;28;20387;-88
2022/01/11 08:46:47;;;;;;;105.70;35.47;;;3.60;99.90;;;;;;5112148;28;20109;-89
2022/01/11 08:49:13;;;;;;;102.20;36.13;;;3.50;99.90;;;;;;5112293;28;20114;-89
2022/01/11 08:51:39;;;;;;;117.50;39.63;;;3.60;99.90;;;;;;5112232;28;20054;-89
2022/01/11 08:54:05;;;;;;;106.28;36.80;;;3.60;99.90;;;;;;5094034;28;20479;-89
2022/01/11 08:56:31;;;;;;;94.63;36.30;;;3.60;99.90;;;;;;5093918;28;20066;-89
2022/01/11 08:58:57;;;;;;;111.18;38.08;;;3.60;99.90;;;;;;5093733;28;20085;-89
2022/01/11 09:01:25;;;;;;;115.03;41.67;;;3.60;99.90;;;;;;5110199;28;20053;-88
2022/01/11 09:03:52;;;;;;;100.95;37.33;;;3.60;99.90;;;;;;5089282;28;20027;-89
2022/01/11 09:06:19;;;;;;;99.60;40.00;;;3.60;99.90;;;;;;5111917;28;20020;-89
2022/01/11 09:08:44;;;;;;;111.97;38.00;;;3.60;99.90;;;;;;5111013;28;20081;-88
2022/01/11 09:11:10;;;;;;;108.72;38.60;;;3.60;99.90;;;;;;5111371;28;20024;-89
2022/01/11 09:13:39;;;;;;;106.75;36.17;;;3.60;99.90;;;;;;5111817;28;20119;-89
2022/01/11 09:16:05;;;;;;;130.05;42.40;;;3.60;99.90;;;;;;5112076;28;20034;-88
2022/01/11 09:18:31;;;;;;;122.63;45.03;;;3.60;99.90;;;;;;5112457;28;20383;-89
2022/01/11 09:21:00;;;;;;;144.40;46.33;;;3.60;99.90;;;;;;5111613;28;20038;-88
2022/01/11 09:23:27;;;;;;;113.95;43.55;;;3.60;99.90;;;;;;5112062;28;20032;-88
2022/01/11 09:25:52;;;;;;;111.78;38.55;;;3.60;99.90;;;;;;5112400;28;20173;-89
2022/01/11 09:28:18;;;;;;;111.65;42.05;;;3.60;99.90;;;;;;5112088;28;20480;-89
2022/01/11 09:30:44;;;;;;;95.20;35.28;;;3.60;99.90;;;;;;5112604;28;20035;-89
2022/01/11 09:33:09;;;;;;;117.97;41.90;;;3.60;99.90;;;;;;5112203;28;20145;-89
2022/01/11 09:35:35;;;;;;;109.93;38.85;;;3.70;99.90;;;;;;5112070;28;20046;-89
2022/01/11 09:38:00;;;;;;;105.60;39.38;;;3.70;99.90;;;;;;5094152;28;20459;-89
2022/01/11 09:40:26;;;;;;;91.13;34.10;;;3.60;99.90;;;;;;5093880;28;20032;-89
2022/01/11 09:42:53;;;;;;;90.72;34.88;;;3.60;99.90;;;;;;5093953;28;20031;-88
2022/01/11 09:45:19;;;;;;;98.07;33.53;;;3.60;99.90;;;;;;5112275;28;20022;-89
2022/01/11 09:47:46;;;;;;;107.90;37.35;;;3.60;99.90;;;;;;5111948;28;20023;-89
2022/01/11 09:50:13;;;;;;;87.85;32.33;;;3.70;99.90;;;;;;5111729;28;20418;-88
2022/01/11 09:52:39;;;;;;;88.85;31.75;;;3.70;99.90;;;;;;5111812;28;20027;-89
2022/01/11 09:55:06;;;;;;;79.43;29.75;;;3.70;99.90;;;;;;5093453;28;20471;-89
2022/01/11 09:57:32;;;;;;;68.90;26.38;;;3.70;99.90;;;;;;5093715;28;20488;-89
2022/01/11 09:59:58;;;;;;;59.33;25.60;;;3.70;99.90;;;;;;5111900;28;20115;-89
2022/01/11 10:02:24;;;;;;;64.38;24.30;;;3.70;99.90;;;;;;5112068;28;20110;-89
2022/01/11 10:05:05;;;;;;;68.50;27.52;;;3.70;99.90;;;;;;5093934;28;20115;-89
2022/01/11 10:07:33;;;;;;;74.57;28.65;;;3.80;99.90;;;;;;5112059;28;20039;-89
2022/01/11 10:09:59;;;;;;;86.35;32.70;;;3.80;99.90;;;;;;5110563;28;20031;-89
2022/01/11 10:12:29;;;;;;;98.65;35.72;;;3.80;99.90;;;;;;5110630;28;20053;-88
2022/01/11 10:14:58;;;;;;;99.13;37.00;;;3.80;99.90;;;;;;5113590;28;20433;-89
2022/01/11 10:17:29;;;;;;;86.95;31.45;;;3.80;99.90;;;;;;5097073;28;20031;-89
2022/01/11 10:20:07;;;;;;;87.22;33.78;;;3.80;99.90;;;;;;5097252;28;20538;-88
2022/01/11 10:22:33;;;;;;;100.43;35.70;;;3.80;99.90;;;;;;5096502;28;20130;-88
2022/01/11 10:25:00;;;;;;;82.50;31.40;;;3.80;99.90;;;;;;5094410;28;20376;-89
2022/01/11 10:27:33;;;;;;;74.28;30.02;;;3.90;99.90;;;;;;5115450;28;20063;-89
2022/01/11 10:30:08;;;;;;;75.25;28.33;;;3.70;99.90;;;;;;5114832;28;20098;-88
2022/01/11 10:32:39;;;;;;;93.13;33.42;;;3.80;99.90;;;;;;5115418;28;20472;-89
2022/01/11 10:35:18;;;;;;;81.82;29.77;;;3.80;99.90;;;;;;5115151;28;20042;-89
2022/01/11 10:37:46;;;;;;;105.57;36.33;;;3.90;99.90;;;;;;5097061;28;20540;-89
2022/01/11 10:40:19;;;;;;;88.00;31.08;;;3.90;99.90;;;;;;5114736;28;20031;-88
2022/01/11 10:42:57;;;;;;;79.15;29.35;;;3.90;99.90;;;;;;5114990;28;20493;-89
2022/01/11 10:45:35;;;;;;;89.20;32.13;;;3.90;99.90;;;;;;5097097;28;20031;-89
2022/01/11 10:48:05;;;;;;;73.50;28.98;;;3.90;99.90;;;;;;5114880;28;20103;-88
2022/01/11 10:50:37;;;;;;;72.68;28.10;;;3.90;99.90;;;;;;5112936;28;20019;-88
2022/01/11 10:53:20;;;;;;;69.45;27.98;;;3.90;99.90;;;;;;5113256;28;20102;-89
2022/01/11 10:55:55;;;;;;;71.32;28.90;;;3.90;99.90;;;;;;5111497;28;20027;-89
2022/01/11 10:58:22;;;;;;;77.63;30.65;;;4.00;99.90;;;;;;5092294;28;20019;-89
2022/01/11 11:00:50;;;;;;;79.50;30.48;;;4.00;99.90;;;;;;5103720;28;20113;-89
2022/01/11 11:03:21;;;;;;;79.50;29.50;;;4.00;99.90;;;;;;5112105;28;20028;-89
2022/01/11 11:05:55;;;;;;;80.47;28.65;;;4.00;99.90;;;;;;5095996;28;20023;-88
2022/01/11 11:08:23;;;;;;;75.45;29.42;;;4.00;99.90;;;;;;5095859;28;20027;-89
2022/01/11 11:10:55;;;;;;;75.63;29.15;;;4.00;99.90;;;;;;5112936;28;20028;-88
2022/01/11 11:13:27;;;;;;;60.88;26.55;;;4.10;99.90;;;;;;5112310;28;20106;-88
2022/01/11 11:15:55;;;;;;;75.70;29.88;;;4.10;99.90;;;;;;5086154;28;20031;-88
2022/01/11 11:18:32;;;;;;;78.35;29.83;;;4.10;99.90;;;;;;5100184;28;20471;-88
2022/01/11 11:21:32;;;;;;;63.58;26.75;;;4.10;99.90;;;;;;5094901;28;20043;-88
2022/01/11 11:24:04;;;;;;;59.10;23.90;;;4.10;99.90;;;;;;5095407;28;20380;-88
2022/01/11 11:26:39;;;;;;;61.83;24.70;;;4.10;99.90;;;;;;5079639;28;20081;-88
2022/01/11 11:29:07;;;;;;;78.00;30.27;;;4.10;99.90;;;;;;5113735;28;20039;-88
2022/01/11 11:31:34;;;;;;;70.50;27.83;;;4.20;99.90;;;;;;5113782;28;20035;-88
2022/01/11 11:34:01;;;;;;;69.93;26.75;;;4.20;99.90;;;;;;5113859;28;20024;-88
2022/01/11 11:36:35;;;;;;;71.90;29.63;;;4.10;99.90;;;;;;5103399;28;20046;-88
2022/01/11 11:39:23;;;;;;;62.17;27.38;;;4.20;99.90;;;;;;5100786;28;20024;-87
2022/01/11 11:41:50;;;;;;;67.10;28.30;;;4.20;99.90;;;;;;5111344;28;20034;-88
2022/01/11 11:44:24;;;;;;;65.35;25.92;;;4.20;99.90;;;;;;5113770;28;20114;-88
2022/01/11 11:47:06;;;;;;;56.95;24.77;;;4.20;99.90;;;;;;5111886;28;20384;-87
2022/01/11 11:49:51;;;;;;;59.00;25.17;;;4.20;99.90;;;;;;5094854;28;20024;-88
2022/01/11 11:52:39;;;;;;;56.72;25.00;;;4.20;99.90;;;;;;5093444;28;20043;-88
2022/01/11 11:55:15;;;;;;;61.13;27.08;;;4.20;99.90;;;;;;5095474;28;20118;-87
2022/01/11 11:57:41;;;;;;;71.35;26.65;;;4.30;99.90;;;;;;5113836;28;20048;-87
2022/01/11 12:00:18;;;;;;;56.22;25.35;;;4.30;99.90;;;;;;5095782;28;20020;-88
2022/01/11 12:02:49;;;;;;;56.15;25.08;;;4.30;99.90;;;;;;5095675;28;20454;-87
2022/01/11 12:05:39;;;;;;;67.63;27.20;;;4.30;99.90;;;;;;5095749;28;20023;-87
2022/01/11 12:08:57;;;;;;;51.95;23.90;;;4.30;99.90;;;;;;5113784;28;20486;-88
2022/01/11 12:11:34;;;;;;;;;;;4.40;99.90;;;;;;5114430;28;20379;-88
2022/01/11 12:14:00;;;;;;;57.28;26.02;;;4.30;99.90;;;;;;5113680;28;19956;-87
2022/01/11 12:16:25;;;;;;;59.72;25.00;;;4.40;99.90;;;;;;5095607;28;20382;-88
2022/01/11 12:18:52;;;;;;;47.95;22.42;;;4.40;99.90;;;;;;5113731;28;20020;-87
2022/01/11 12:21:22;;;;;;;54.63;23.48;;;4.40;99.90;;;;;;5095377;28;20509;-87
2022/01/11 12:23:51;;;;;;;45.25;21.92;;;4.40;99.90;;;;;;5113406;28;20065;-88
2022/01/11 12:26:57;;;;;;;48.03;22.33;;;4.40;99.90;;;;;;5095198;28;20028;-88
2022/01/11 12:29:24;;;;;;;45.35;21.13;;;4.40;99.90;;;;;;5113630;28;20102;-88
2022/01/11 12:31:54;;;;;;;40.65;17.52;;;4.40;99.90;;;;;;5113357;28;20053;-88
2022/01/11 12:34:45;;;;;;;30.95;15.40;;;4.40;99.90;;;;;;5113230;28;20031;-88
2022/01/11 12:37:24;;;;;;;29.85;13.55;;;4.40;99.90;;;;;;5092762;28;20039;-88
2022/01/11 12:39:59;;;;;;;28.63;14.52;;;4.40;99.90;;;;;;5076316;28;20031;-87
2022/01/11 12:42:26;;;;;;;25.83;13.37;;;4.50;99.90;;;;;;5094608;28;20035;-87
2022/01/11 12:47:49;;;;;;;25.27;12.32;;;4.40;99.90;;;;;;5112747;28;20511;-87
2022/01/11 12:50:17;;;;;;;25.33;12.07;;;4.40;99.90;;;;;;5107141;28;20543;-86
2022/01/11 12:52:44;;;;;;;20.27;11.77;;;4.40;99.90;;;;;;5111158;28;20020;-87
2022/01/11 12:55:11;;;;;;;19.88;11.15;;;4.50;99.90;;;;;;5098269;28;20024;-88
2022/01/11 12:57:38;;;;;;;17.95;10.55;;;4.40;99.90;;;;;;5092315;28;20545;-87